x

Cape San Martin - 55nm West Nw Of Morro Bay, Ca (46028) Wave Buoy

9:50pm - Tue 21st Feb 2017 All times are PST. -8 hours from GMT.

  • Sig Wave height 7.9ft
  • Swell Direction
  • Peak Period 13s
  • Average Period 8s
  • Wind
    9mph, 11mph gusts
  • Sea Temp 55°f
  • Air Temp 55°f
  • Sea Pressure 1024.6mb
  • Cape San Martin - 55nm West Nw Of Morro Bay, Ca
  • Cape San Martin - 55nm West Nw Of Morro Bay, Ca

More Historic Weather Station data

Upgrade to MSW Pro to gain access to the past 30 days of data for over 8000 Wavebouys and Weather Stations around the globe.

Join Pro

Comparision Forecast

View Surf forecast
   
Tue 02/21 9:50pm 8ft 13s 8s 9 11 mph 1024.6mb 55f 55f
8:50pm 9ft 11s 9s 9 11 mph 1024.3mb 55f 56f
7:50pm 8.5ft 13s 8s 11 13 mph 1023.7mb 55f 56f
6:50pm 9ft 12s 8s 9 13 mph 1023.6mb 55f 56f
5:50pm 9ft 10s 8s 9 11 mph 1023.3mb 55f 56f
4:50pm 10ft 12s 8s 7 9 mph 1023.2mb 56f 58f
3:50pm 10.5ft 11s 8s 9
mph
1023.3mb 56f 57f
2:50pm 11ft 11s 8s 9 11 mph 1023.5mb 56f 58f
1:50pm 10.5ft 11s 8s 7 9 mph 1023.9mb 56f 58f
12:50pm 10ft 13s 8s 9 11 mph 1024.3mb 55f 58f
11:50am 11ft 11s 8s 11 13 mph 1024.9mb 55f 58f
10:50am 11ft 11s 9s 7 9 mph 1025.1mb 55f 57f
9:50am 11ft 11s 9s 7 9 mph 1024.7mb 55f 57f
8:50am 10.5ft 11s 9s 7
mph
1024.1mb 55f 57f
7:50am 12ft 13s 9s 7
mph
1023.7mb 55f 57f
6:50am 11ft 12s 9s 9
mph
1023mb 55f 57f
5:50am 11ft 12s 9s 9 11 mph 1022.4mb 55f 57f
4:50am 10.5ft 14s 8s 9 11 mph 1022.1mb 55f 57f
3:50am 11ft 13s 9s 9 11 mph 1022mb 55f 57f
2:50am 11ft 14s 8s 9 11 mph 1022.1mb 55f 57f
1:50am 9.5ft 13s 8s 11 13 mph 1022.3mb 55f 57f
12:50am 11ft 14s 8s 16 18 mph 1022.2mb 55f 58f
Mon 02/20 11:50pm 11ft 14s 8s 16 20 mph 1021.7mb 55f 58f
10:50pm 10.5ft 7s 7s 18 20 mph 1020.8mb 55f 58f
9:50pm 13ft 14s 8s 18 20 mph 1020mb 55f 57f
8:50pm 12ft 15s 8s 16 18 mph 1019.9mb 55f 57f
7:50pm 13ft 15s 7s 22 31 mph 1019.1mb 55f 58f
6:50pm 13.5ft 14s 7s 22 31 mph 1017.8mb 55f 57f
5:50pm 13ft 15s 8s 29 38 mph 1016.7mb 55f 58f
4:50pm 14.5ft 15s 8s 27 34 mph 1017.1mb 55f 58f
3:50pm 12.5ft 15s 8s 25 31 mph 1017.7mb 55f 58f
2:50pm 14ft 16s 8s 27 34 mph 1016.6mb 55f 58f
1:50pm 12.5ft 13s 8s 27 34 mph 1016.4mb 55f 58f
12:50pm 13ft 14s 8s 25 34 mph 1017.5mb 55f 57f
11:50am 12ft 15s 8s 20 25 mph 1018.5mb 55f 58f
10:50am 12.5ft 15s 8s 20 25 mph 1018.4mb 55f 58f
9:50am 11.5ft 16s 8s 22 25 mph 1017.6mb 55f 58f
8:50am 11.5ft 16s 8s 20 27 mph 1016.4mb 55f 58f
7:50am 12ft 16s 8s 22 27 mph 1015.9mb 55f 57f
6:50am 11ft 17s 8s 20 27 mph 1015.3mb 55f 57f
5:50am 10ft 17s 7s 18 25 mph 1015.4mb 55f 57f
4:50am 10ft 17s 7s 20 27 mph 1015mb 55f 56f
3:50am 10ft 17s 7s 22 27 mph 1014.8mb 55f 56f
2:50am 9ft 10s 7s 25 29 mph 1014.5mb 55f 56f
1:50am 10ft 13s 7s 25 29 mph 1014.5mb 55f 56f
12:50am 10ft 11s 7s 22 27 mph 1014.4mb 55f 56f
Sun 02/19 11:50pm 10ft 13s 7s 22 29 mph 1014.8mb 55f 55f
10:50pm 10ft 11s 6s 27 34 mph 1014.7mb 55f 55f
9:50pm 10ft 12s 6s 27 34 mph 1014.5mb 55f 54f
8:50pm 9ft 13s 6s 27 34 mph 1014mb 55f 54f
7:50pm 8.5ft 12s 6s 29 36 mph 1013.5mb 55f 53f
6:50pm 8ft 11s 7s 27 34 mph 1012.4mb 55f 53f
5:50pm 8ft 12s 7s 25 31 mph 1012.5mb 55f 53f
4:50pm 7.5ft 12s 7s 20 27 mph 1012.7mb 55f 54f
3:50pm 7.5ft 12s 7s 20 25 mph 1012.5mb 55f 53f
2:50pm 7ft 12s 7s 22 27 mph 1012.4mb 55f 53f
1:50pm 7ft 14s 7s 20 25 mph 1012.3mb 55f 53f
12:50pm 7ft 11s 8s 20 25 mph 1012.9mb 55f 54f
11:50am 8ft 11s 9s 18 22 mph 1013.4mb 55f 54f
10:50am 7ft 12s 8s 16 18 mph 1013.8mb 55f 54f
9:50am 8ft 12s 8s 11 13 mph 1013.5mb 55f 54f
8:50am 9ft 11s 8s 9 13 mph 1012.7mb 55f 55f
7:50am 10ft 12s 8s 7 9 mph 1012.2mb 55f 54f
6:50am 9.5ft 12s 8s  -  2 mph 1011.8mb 55f 54f
5:50am 10ft 13s 8s 4 7 mph 1011.6mb 55f 54f
4:50am 10.5ft 12s 8s 9 11 mph 1011mb 55f 54f
3:50am 11ft 13s 8s 11 13 mph 1010.7mb 55f 54f
2:50am 12ft 11s 8s 16 18 mph 1010.9mb 55f 54f
1:50am 13ft 11s 8s 16 18 mph 1010.3mb 55f 54f
12:50am 12ft 12s 8s 18 22 mph 1010.4mb 55f 54f
Sat 02/18 11:50pm 15ft 11s 9s 18 22 mph 1009.8mb 55f 54f
10:50pm 14.5ft 12s 9s 18 22 mph 1009.6mb 55f 54f
9:50pm 15ft 13s 9s 20 27 mph 1009.4mb 55f 54f
8:50pm 14.5ft 12s 9s 22 29 mph 1008.9mb 55f 54f
7:50pm 15ft 13s 9s 25 31 mph 1007.9mb 55f 54f
6:50pm 14ft 14s 8s 22 29 mph 1007.1mb 55f 54f
5:50pm 16ft 11s 9s 25 29 mph 1006.1mb 55f 54f
4:50pm 15.5ft 13s 9s 27 31 mph 1005.5mb 55f 54f
3:50pm 17.5ft 13s 9s 27 31 mph 1004.8mb 55f 54f
2:50pm 14.5ft 12s 8s 27 34 mph 1004mb 55f 54f
1:50pm 17ft 11s 9s 27 34 mph 1003.9mb 55f 54f
12:50pm 18.5ft 13s 9s 29 36 mph 1003.9mb 55f 54f
11:50am 17.5ft 12s 9s 31 40 mph 1003.6mb 55f 54f
10:50am 18ft 13s 9s 31 40 mph 1003.2mb 55f 54f
9:50am 19.5ft 11s 9s 29 38 mph 1002.6mb 55f 55f
8:50am 17.5ft 11s 9s 31 38 mph 1001.7mb 55f 54f
7:50am 19ft 12s 9s 31 38 mph 1000.8mb 55f 54f
6:50am 17ft 11s 8s 31 40 mph 999.5mb 55f 54f